Time;durP1;ratioP1;P1;durP2;ratioP2;P2;SDS_P1;SDS_P2;PMS_P1;PMS_P2;Temp;Humidity;BMP_temperature;BMP_pressure;BME280_temperature;BME280_humidity;BME280_pressure;Samples;Min_cycle;Max_cycle;Signal;HPM_P1;HPM_P2
2023/04/15 00:01:05;;;;;;;9.30;4.97;;;9.40;99.90;;;;;;4453573;28;657001;-70
2023/04/15 00:03:53;;;;;;;7.13;3.87;;;9.40;99.90;;;;;;4430339;28;657494;-70
2023/04/15 00:06:40;;;;;;;5.60;3.77;;;9.40;99.90;;;;;;4454652;28;656396;-70
2023/04/15 00:09:27;;;;;;;6.13;3.50;;;9.40;99.90;;;;;;4453576;28;658224;-70
2023/04/15 00:12:15;;;;;;;6.57;3.57;;;9.40;99.90;;;;;;4453796;28;656436;-70
2023/04/15 00:15:04;;;;;;;10.40;4.17;;;9.40;99.90;;;;;;4446438;28;658466;-70
2023/04/15 00:17:51;;;;;;;10.07;4.17;;;9.40;99.90;;;;;;4449436;28;657419;-70
2023/04/15 00:20:38;;;;;;;5.33;3.40;;;9.40;99.90;;;;;;4451665;28;658532;-70
2023/04/15 00:23:26;;;;;;;4.97;3.03;;;9.40;99.90;;;;;;4434225;28;656466;-69
2023/04/15 00:26:13;;;;;;;6.27;3.00;;;9.40;99.90;;;;;;4457411;28;657681;-70
2023/04/15 00:29:00;;;;;;;6.87;3.10;;;9.30;99.90;;;;;;4433817;28;656504;-70
2023/04/15 00:31:49;;;;;;;4.40;2.80;;;9.30;99.90;;;;;;4473322;28;657671;-70
2023/04/15 00:34:36;;;;;;;4.00;2.50;;;9.20;99.90;;;;;;4450339;28;656653;-70
2023/04/15 00:37:23;;;;;;;5.50;2.90;;;9.20;99.90;;;;;;4453509;28;656518;-70
2023/04/15 00:40:12;;;;;;;3.70;2.60;;;9.10;99.90;;;;;;4433886;28;657018;-70
2023/04/15 00:42:59;;;;;;;5.83;2.80;;;9.10;99.90;;;;;;4452476;28;656564;-70
2023/04/15 00:45:47;;;;;;;7.03;2.87;;;9.10;99.90;;;;;;4434030;28;658506;-70
2023/04/15 00:48:35;;;;;;;6.57;3.60;;;9.00;99.90;;;;;;4453117;28;656228;-70
2023/04/15 00:51:23;;;;;;;6.23;2.97;;;9.00;99.90;;;;;;4432383;28;657279;-70
2023/04/15 00:54:11;;;;;;;5.70;3.50;;;9.00;99.90;;;;;;4432084;28;656585;-70
2023/04/15 00:56:58;;;;;;;5.80;2.73;;;9.00;99.90;;;;;;4455502;28;657212;-70
2023/04/15 00:59:46;;;;;;;6.03;2.72;;;8.90;99.90;;;;;;4432149;28;657060;-70
2023/04/15 01:02:33;;;;;;;6.30;3.50;;;8.90;99.90;;;;;;4455421;28;657173;-70
2023/04/15 01:05:22;;;;;;;7.27;3.10;;;8.90;99.90;;;;;;4431316;28;656505;-70
2023/04/15 01:08:09;;;;;;;6.03;3.10;;;8.80;99.90;;;;;;4450586;28;656932;-70
2023/04/15 01:10:57;;;;;;;6.13;3.17;;;8.80;99.90;;;;;;4426659;28;656474;-70
2023/04/15 01:13:44;;;;;;;3.70;2.53;;;8.70;99.90;;;;;;4433644;28;656768;-70
2023/04/15 01:16:31;;;;;;;4.80;2.60;;;8.60;99.90;;;;;;4431968;28;656549;-70
2023/04/15 01:19:18;;;;;;;4.20;2.60;;;8.60;99.90;;;;;;4450162;28;657758;-70
2023/04/15 01:22:07;;;;;;;2.90;2.10;;;8.60;99.90;;;;;;4431672;28;656333;-69
2023/04/15 01:24:57;;;;;;;3.70;2.28;;;8.60;99.90;;;;;;4450967;28;656236;-70
2023/04/15 01:27:46;;;;;;;3.42;1.95;;;8.50;99.90;;;;;;4427694;28;656861;-70
2023/04/15 01:30:34;;;;;;;4.75;2.50;;;8.50;99.90;;;;;;4427806;28;658001;-70
2023/04/15 01:33:22;;;;;;;2.30;2.00;;;8.60;99.90;;;;;;4426937;28;656499;-70
2023/04/15 01:36:09;;;;;;;5.23;2.73;;;8.60;99.90;;;;;;4450395;28;656056;-70
2023/04/15 01:38:57;;;;;;;5.83;3.10;;;8.60;99.90;;;;;;4427778;28;657476;-70
2023/04/15 01:41:44;;;;;;;8.03;3.90;;;8.50;99.90;;;;;;4449930;28;656257;-70
2023/04/15 01:44:32;;;;;;;8.03;4.00;;;8.50;99.90;;;;;;4431576;28;656847;-70
2023/04/15 01:47:20;;;;;;;8.00;3.67;;;8.40;99.90;;;;;;4449926;28;657435;-70
2023/04/15 01:50:08;;;;;;;7.43;3.63;;;8.30;99.90;;;;;;4454586;28;657944;-70
2023/04/15 01:52:55;;;;;;;5.37;3.37;;;8.20;99.90;;;;;;4440169;28;657111;-70
2023/04/15 01:55:43;;;;;;;11.73;4.37;;;8.20;99.90;;;;;;4452582;28;657504;-70
2023/04/15 01:58:30;;;;;;;11.67;4.50;;;8.20;99.90;;;;;;4439906;28;658276;-70
2023/04/15 02:01:19;;;;;;;8.97;3.83;;;8.20;99.90;;;;;;4450940;28;659051;-70
2023/04/15 02:04:08;;;;;;;12.23;4.93;;;8.20;99.90;;;;;;4446882;28;656634;-70
2023/04/15 02:06:55;;;;;;;7.33;3.13;;;8.10;99.90;;;;;;4448901;28;657935;-70
2023/04/15 02:09:44;;;;;;;5.43;2.70;;;8.10;99.90;;;;;;4455735;28;658108;-70
2023/04/15 02:12:32;;;;;;;5.23;3.00;;;8.00;99.90;;;;;;4428884;28;658311;-70
2023/04/15 02:15:19;;;;;;;8.60;2.97;;;7.90;99.90;;;;;;4466786;28;656229;-70
2023/04/15 02:18:07;;;;;;;6.20;3.30;;;7.90;99.90;;;;;;4432561;28;656288;-70
2023/04/15 02:20:57;;;;;;;5.60;2.63;;;7.90;99.90;;;;;;4465886;28;656795;-70
2023/04/15 02:23:46;;;;;;;6.43;3.07;;;7.80;99.90;;;;;;4467417;28;656308;-70
2023/04/15 02:26:34;;;;;;;6.80;2.93;;;7.70;99.90;;;;;;4432329;28;656844;-69
2023/04/15 02:29:21;;;;;;;5.30;2.97;;;7.70;99.90;;;;;;4431639;28;656491;-70
2023/04/15 02:32:10;;;;;;;7.70;3.17;;;7.60;99.90;;;;;;4455246;28;656182;-70
2023/04/15 02:35:02;;;;;;;4.10;2.50;;;7.50;99.90;;;;;;4431450;28;658108;-70
2023/04/15 02:37:49;;;;;;;6.60;3.00;;;7.40;99.90;;;;;;4448258;28;656573;-70
2023/04/15 02:40:37;;;;;;;10.33;4.50;;;7.30;99.90;;;;;;4435799;28;656868;-69
2023/04/15 02:43:24;;;;;;;6.27;3.00;;;7.20;99.90;;;;;;4454255;28;657706;-69
2023/04/15 02:46:13;;;;;;;7.70;3.80;;;7.10;99.90;;;;;;4433728;28;656887;-69
2023/04/15 02:49:02;;;;;;;7.50;3.87;;;7.10;99.90;;;;;;4435458;28;656515;-69
2023/04/15 02:51:50;;;;;;;12.17;4.40;;;7.00;99.90;;;;;;4452133;28;656685;-69
2023/04/15 02:54:37;;;;;;;11.00;4.37;;;7.00;99.90;;;;;;4434372;28;657951;-70
2023/04/15 02:57:25;;;;;;;10.00;4.20;;;6.90;99.90;;;;;;4451725;28;658196;-69
2023/04/15 03:00:14;;;;;;;9.20;3.70;;;6.90;99.90;;;;;;4457027;28;659202;-69
2023/04/15 03:03:50;;;;;;;5.50;3.10;;;6.70;99.90;;;;;;4451778;28;656981;-69
2023/04/15 03:06:37;;;;;;;5.47;2.87;;;6.70;99.90;;;;;;4408856;28;656921;-69
2023/04/15 03:09:26;;;;;;;6.70;3.33;;;6.70;99.90;;;;;;4470883;28;656588;-69
2023/04/15 03:12:13;;;;;;;11.20;5.23;;;6.60;99.90;;;;;;4447377;28;657509;-69
2023/04/15 03:15:00;;;;;;;10.55;4.40;;;6.70;99.90;;;;;;4433870;28;658088;-69
2023/04/15 03:17:48;;;;;;;9.90;5.13;;;6.50;99.90;;;;;;4452296;28;657223;-69
2023/04/15 03:20:36;;;;;;;7.30;3.33;;;6.50;99.90;;;;;;4434130;28;656578;-69
2023/04/15 03:23:24;;;;;;;6.50;3.40;;;6.80;99.90;;;;;;4455016;28;656648;-69
2023/04/15 03:26:23;;;;;;;5.28;3.38;;;6.70;99.90;;;;;;4430819;28;656444;-69
2023/04/15 03:29:10;;;;;;;5.30;3.57;;;6.60;99.90;;;;;;4412012;28;656163;-69
2023/04/15 03:31:58;;;;;;;6.97;3.77;;;6.50;99.90;;;;;;4455005;28;657410;-70
2023/04/15 03:34:45;;;;;;;8.73;3.40;;;6.40;99.90;;;;;;4455676;28;656242;-70
2023/04/15 03:37:32;;;;;;;4.97;3.10;;;6.40;99.90;;;;;;4470287;28;658084;-71
2023/04/15 03:40:21;;;;;;;4.97;2.97;;;6.30;99.90;;;;;;4468085;28;656745;-70
2023/04/15 03:43:11;;;;;;;4.40;3.00;;;6.20;99.90;;;;;;4469618;28;657117;-70
2023/04/15 03:45:58;;;;;;;4.10;2.63;;;6.20;99.90;;;;;;4430572;28;658037;-71
2023/04/15 03:48:45;;;;;;;5.43;2.93;;;6.10;99.90;;;;;;4442142;28;656447;-70
2023/04/15 03:51:32;;;;;;;4.63;3.03;;;6.10;99.90;;;;;;4470019;28;657788;-71
2023/04/15 03:54:19;;;;;;;5.07;2.70;;;6.10;99.90;;;;;;4452452;28;656501;-71
2023/04/15 03:57:07;;;;;;;2.97;2.47;;;6.00;99.90;;;;;;4411850;28;658321;-71
2023/04/15 03:59:55;;;;;;;8.27;3.20;;;6.00;99.90;;;;;;4451241;28;656965;-71
2023/04/15 04:02:44;;;;;;;10.53;3.90;;;6.00;99.90;;;;;;4429243;28;657199;-71
2023/04/15 04:05:31;;;;;;;6.93;3.23;;;5.80;99.90;;;;;;4427861;28;658788;-71
2023/04/15 04:08:20;;;;;;;5.53;2.77;;;5.80;99.90;;;;;;4452258;28;657469;-70
2023/04/15 04:11:07;;;;;;;5.13;2.60;;;5.70;99.90;;;;;;4433020;28;657425;-70
2023/04/15 04:13:54;;;;;;;8.60;3.23;;;5.70;99.90;;;;;;4435387;28;656677;-71
2023/04/15 04:16:43;;;;;;;7.97;3.20;;;5.70;99.90;;;;;;4416473;28;657557;-71
2023/04/15 04:19:30;;;;;;;11.77;5.37;;;5.70;99.90;;;;;;4432959;28;657115;-70
2023/04/15 04:22:17;;;;;;;9.23;4.07;;;5.70;99.90;;;;;;4450832;28;658963;-71
2023/04/15 04:25:07;;;;;;;9.50;4.80;;;5.70;99.90;;;;;;4445895;28;656916;-70
2023/04/15 04:27:54;;;;;;;8.30;4.30;;;5.70;99.90;;;;;;4451545;28;656520;-71
2023/04/15 04:30:41;;;;;;;3.63;2.23;;;5.80;99.90;;;;;;4430412;28;656644;-71
2023/04/15 04:33:30;;;;;;;5.30;3.23;;;5.80;99.90;;;;;;4451529;28;656802;-71
2023/04/15 04:36:17;;;;;;;6.03;3.13;;;5.80;99.90;;;;;;4431675;28;656645;-70
2023/04/15 04:39:04;;;;;;;6.80;3.50;;;5.80;99.90;;;;;;4451547;28;656940;-71
2023/04/15 04:41:52;;;;;;;6.53;3.60;;;5.80;99.90;;;;;;4427880;28;656578;-71
2023/04/15 04:44:39;;;;;;;5.80;3.63;;;5.90;99.90;;;;;;4451162;28;656581;-71
2023/04/15 04:47:26;;;;;;;5.27;3.40;;;6.00;99.90;;;;;;4432539;28;656295;-71
2023/04/15 04:50:15;;;;;;;6.60;3.90;;;6.00;99.90;;;;;;4455490;28;657096;-71
2023/04/15 04:53:02;;;;;;;7.70;4.07;;;6.10;99.90;;;;;;4439851;28;657248;-71
2023/04/15 04:55:49;;;;;;;7.20;4.10;;;6.20;99.90;;;;;;4452198;28;656160;-71
2023/04/15 04:58:37;;;;;;;6.10;3.77;;;6.30;99.90;;;;;;4433656;28;657547;-70
2023/04/15 05:01:25;;;;;;;4.13;2.73;;;6.40;99.90;;;;;;4452534;28;656829;-71
2023/04/15 05:04:12;;;;;;;5.77;3.00;;;6.40;99.90;;;;;;4450193;28;657775;-71
2023/04/15 05:07:01;;;;;;;7.93;3.87;;;6.50;99.90;;;;;;4468795;28;656454;-71
2023/04/15 05:09:48;;;;;;;8.87;4.93;;;6.60;99.90;;;;;;4445749;28;657445;-71
2023/04/15 05:12:36;;;;;;;12.80;5.18;;;6.80;99.90;;;;;;4449679;28;656549;-70
2023/04/15 05:15:23;;;;;;;10.10;4.00;;;6.80;99.90;;;;;;4454689;28;658627;-71
2023/04/15 05:18:10;;;;;;;9.35;4.63;;;6.80;99.90;;;;;;4431997;28;657604;-70
2023/04/15 05:20:57;;;;;;;7.47;3.60;;;6.90;99.90;;;;;;4453133;28;658094;-71
2023/04/15 05:23:47;;;;;;;4.37;2.70;;;7.00;99.90;;;;;;4450405;28;657060;-70
2023/04/15 05:26:34;;;;;;;4.03;2.30;;;7.10;99.90;;;;;;4456167;28;656970;-71
2023/04/15 05:29:21;;;;;;;6.37;3.20;;;7.30;99.90;;;;;;4448967;28;656491;-70
2023/04/15 05:32:08;;;;;;;4.40;2.60;;;7.50;99.90;;;;;;4472390;28;657547;-71
2023/04/15 05:34:55;;;;;;;6.90;2.90;;;7.60;99.90;;;;;;4449653;28;656289;-71
2023/04/15 05:37:43;;;;;;;4.27;2.70;;;7.80;99.90;;;;;;4452082;28;656981;-71
2023/04/15 05:40:32;;;;;;;7.20;3.10;;;8.00;99.90;;;;;;4441990;28;656414;-71
2023/04/15 05:43:19;;;;;;;4.80;2.80;;;8.20;99.90;;;;;;4452510;27;656760;-71
2023/04/15 05:46:07;;;;;;;5.83;2.97;;;8.40;99.90;;;;;;4433456;28;656408;-71
2023/04/15 05:48:54;;;;;;;3.90;2.57;;;8.50;99.90;;;;;;4456449;28;656828;-71
2023/04/15 05:51:41;;;;;;;4.07;2.73;;;8.70;99.90;;;;;;4433302;28;656803;-71
2023/04/15 05:54:29;;;;;;;5.33;2.97;;;8.90;99.90;;;;;;4450423;28;656794;-71
2023/04/15 05:57:17;;;;;;;5.53;3.20;;;9.10;99.90;;;;;;4429950;28;656925;-70
2023/04/15 06:00:06;;;;;;;6.63;3.50;;;9.40;99.90;;;;;;4450039;28;656498;-71
2023/04/15 06:02:53;;;;;;;5.70;3.07;;;9.60;99.90;;;;;;4413078;28;657732;-71
2023/04/15 06:05:40;;;;;;;4.23;2.60;;;9.80;99.90;;;;;;4430867;28;656993;-71
2023/04/15 06:08:28;;;;;;;3.87;2.13;;;9.80;99.90;;;;;;4450322;28;657193;-72
2023/04/15 06:11:15;;;;;;;5.30;2.60;;;10.10;99.90;;;;;;4444707;28;656806;-71
2023/04/15 06:14:04;;;;;;;4.73;2.20;;;10.10;99.90;;;;;;4448183;28;659257;-72
2023/04/15 06:16:51;;;;;;;5.30;2.33;;;9.70;99.90;;;;;;4425473;28;657528;-71
2023/04/15 06:19:39;;;;;;;3.70;2.40;;;9.70;99.90;;;;;;4449851;28;657659;-71
2023/04/15 06:22:26;;;;;;;5.17;2.47;;;9.70;99.90;;;;;;4431225;28;656515;-72
2023/04/15 06:25:13;;;;;;;7.83;2.50;;;9.80;99.90;;;;;;4451543;28;658203;-72
2023/04/15 06:28:00;;;;;;;4.47;2.63;;;9.90;99.90;;;;;;4431060;28;656761;-71
2023/04/15 06:30:49;;;;;;;9.77;3.17;;;10.00;99.90;;;;;;4437783;28;658073;-71
2023/04/15 06:33:36;;;;;;;4.37;1.93;;;10.40;99.90;;;;;;4409444;28;657694;-71
2023/04/15 06:36:24;;;;;;;6.30;2.07;;;10.40;99.90;;;;;;4448607;28;657859;-71
2023/04/15 06:39:11;;;;;;;6.80;2.20;;;10.30;99.90;;;;;;4429893;28;657608;-71
2023/04/15 06:41:58;;;;;;;9.70;2.27;;;10.50;99.90;;;;;;4448370;28;658514;-71
2023/04/15 06:44:45;;;;;;;5.80;2.17;;;10.20;99.90;;;;;;4428834;28;657802;-70
2023/04/15 06:47:34;;;;;;;7.00;2.30;;;10.40;99.90;;;;;;4448970;28;659348;-71
2023/04/15 06:50:21;;;;;;;3.27;2.00;;;10.40;99.90;;;;;;4429957;28;658164;-71
2023/04/15 06:53:08;;;;;;;7.53;2.37;;;10.50;99.90;;;;;;4459122;28;658540;-72
2023/04/15 06:55:55;;;;;;;5.50;2.30;;;10.60;99.90;;;;;;4430733;28;657793;-71
2023/04/15 06:58:42;;;;;;;4.13;2.50;;;10.90;99.90;;;;;;4450821;28;659058;-71
2023/04/15 07:01:30;;;;;;;5.13;2.30;;;11.20;99.90;;;;;;4447178;28;658212;-71
2023/04/15 07:04:19;;;;;;;4.93;2.30;;;11.40;99.90;;;;;;4453440;28;658397;-72
2023/04/15 07:07:06;;;;;;;2.70;1.57;;;11.70;99.90;;;;;;4431663;28;657982;-72
2023/04/15 07:09:54;;;;;;;2.77;1.70;;;11.80;99.90;;;;;;4450596;28;658039;-72
2023/04/15 07:12:41;;;;;;;6.10;1.80;;;11.70;99.90;;;;;;4430508;28;657876;-71
2023/04/15 07:15:28;;;;;;;4.37;1.87;;;11.50;99.90;;;;;;4450938;28;658513;-72
2023/04/15 07:18:15;;;;;;;4.53;1.60;;;11.50;99.90;;;;;;4449462;28;657380;-71
2023/04/15 07:21:04;;;;;;;3.97;1.70;;;11.70;99.90;;;;;;4469472;28;659431;-72
2023/04/15 07:23:51;;;;;;;3.30;1.75;;;11.70;99.90;;;;;;4450697;28;657597;-72
2023/04/15 07:26:39;;;;;;;6.10;1.80;;;11.50;99.90;;;;;;4469367;28;657697;-72
2023/04/15 07:29:26;;;;;;;2.57;1.43;;;11.50;99.90;;;;;;4434031;28;657419;-71
2023/04/15 07:32:13;;;;;;;4.33;1.83;;;11.90;99.90;;;;;;4453466;28;658876;-71
2023/04/15 07:35:02;;;;;;;8.40;2.73;;;12.20;99.90;;;;;;4450346;28;657529;-71
2023/04/15 07:37:51;;;;;;;5.33;2.17;;;12.30;99.90;;;;;;4452337;28;658344;-72
2023/04/15 07:40:38;;;;;;;2.97;1.73;;;12.00;99.90;;;;;;4429180;28;658702;-71
2023/04/15 07:43:25;;;;;;;4.87;1.80;;;12.30;99.90;;;;;;4439066;28;657330;-71
2023/04/15 07:46:12;;;;;;;12.60;2.00;;;11.90;99.90;;;;;;4453238;28;658915;-72
2023/04/15 07:49:00;;;;;;;4.17;1.37;;;12.00;99.90;;;;;;4467673;28;658949;-72
2023/04/15 07:51:47;;;;;;;6.20;1.80;;;12.30;99.90;;;;;;4445300;28;659176;-71
2023/04/15 07:54:36;;;;;;;3.47;1.80;;;12.60;99.90;;;;;;4451152;28;658057;-71
2023/04/15 07:57:23;;;;;;;3.17;2.10;;;12.90;99.90;;;;;;4414913;28;657968;-71
2023/04/15 08:00:12;;;;;;;9.47;2.33;;;13.00;99.90;;;;;;4431905;28;657881;-71
2023/04/15 08:02:59;;;;;;;5.10;1.60;;;13.20;99.90;;;;;;4432359;28;657338;-72
2023/04/15 08:05:46;;;;;;;5.67;1.60;;;13.30;99.90;;;;;;4414366;28;657442;-71
2023/04/15 08:08:33;;;;;;;4.37;2.10;;;13.20;99.90;;;;;;4434434;28;658297;-72
2023/04/15 08:11:23;;;;;;;7.20;3.13;;;13.60;99.90;;;;;;4414059;28;658162;-71
2023/04/15 08:14:10;;;;;;;8.80;3.63;;;13.50;99.90;;;;;;4417598;28;658173;-71
2023/04/15 08:16:57;;;;;;;9.17;3.40;;;13.60;99.90;;;;;;4433998;28;658862;-72
2023/04/15 08:19:44;;;;;;;5.33;2.77;;;14.10;99.90;;;;;;4450905;28;657631;-72
2023/04/15 08:22:32;;;;;;;8.33;3.00;;;14.60;99.90;;;;;;4409946;28;659057;-72
2023/04/15 08:25:20;;;;;;;6.87;2.67;;;14.50;99.90;;;;;;4450396;28;657565;-72
2023/04/15 08:28:09;;;;;;;6.93;2.97;;;14.50;99.90;;;;;;4430412;28;658273;-72
2023/04/15 08:30:56;;;;;;;5.33;2.60;;;14.40;99.90;;;;;;4430692;28;657556;-72
2023/04/15 08:33:43;;;;;;;6.33;3.03;;;14.50;99.80;;;;;;4453336;28;658040;-72
2023/04/15 08:36:31;;;;;;;5.27;3.07;;;14.40;98.10;;;;;;4432573;28;658342;-71
2023/04/15 08:39:18;;;;;;;14.20;4.27;;;14.40;99.90;;;;;;4432545;28;658559;-72
2023/04/15 08:42:08;;;;;;;10.83;4.07;;;14.40;99.70;;;;;;4412602;28;658637;-71
2023/04/15 08:44:56;;;;;;;9.00;3.87;;;14.70;99.90;;;;;;4425475;28;658869;-71
2023/04/15 08:47:44;;;;;;;12.07;4.20;;;14.90;99.90;;;;;;4432741;28;657395;-72
2023/04/15 08:50:32;;;;;;;8.87;3.50;;;15.10;99.90;;;;;;4411788;28;658665;-72
2023/04/15 08:53:19;;;;;;;8.13;3.90;;;15.20;99.80;;;;;;4450587;28;657769;-72
2023/04/15 08:56:07;;;;;;;13.07;3.70;;;15.50;99.90;;;;;;4430814;28;657166;-72
2023/04/15 08:58:54;;;;;;;13.03;4.07;;;15.90;99.90;;;;;;4449875;28;658546;-72
2023/04/15 09:01:43;;;;;;;11.00;4.20;;;16.10;99.90;;;;;;4430667;28;659886;-73
2023/04/15 09:04:30;;;;;;;10.57;4.10;;;16.20;96.40;;;;;;4439929;28;658898;-72
2023/04/15 09:07:17;;;;;;;9.13;3.30;;;15.80;94.80;;;;;;4449639;28;660047;-72
2023/04/15 09:10:05;;;;;;;11.97;4.00;;;16.10;97.50;;;;;;4450797;28;657646;-72
2023/04/15 09:12:52;;;;;;;7.83;3.23;;;16.10;94.60;;;;;;4429930;28;659386;-72
2023/04/15 09:15:40;;;;;;;10.30;3.90;;;15.80;97.10;;;;;;4455743;28;658123;-73
2023/04/15 09:18:29;;;;;;;11.37;4.00;;;15.80;93.60;;;;;;4430717;28;659121;-72
2023/04/15 09:21:18;;;;;;;6.47;3.03;;;15.80;94.30;;;;;;4445096;28;658598;-72
2023/04/15 09:24:06;;;;;;;5.90;2.87;;;15.70;92.80;;;;;;4459369;28;658551;-72
2023/04/15 09:26:54;;;;;;;7.80;2.97;;;15.80;92.10;;;;;;4454848;28;657424;-72
2023/04/15 09:29:42;;;;;;;8.17;2.63;;;15.90;92.20;;;;;;4429286;28;657707;-72
2023/04/15 09:32:29;;;;;;;5.97;2.63;;;15.90;88.40;;;;;;4451639;28;657979;-73
2023/04/15 09:35:17;;;;;;;3.43;2.03;;;15.90;85.20;;;;;;4431647;28;657851;-72
2023/04/15 09:38:06;;;;;;;5.93;1.83;;;15.80;85.40;;;;;;4448533;28;657858;-71
2023/04/15 09:40:53;;;;;;;2.23;1.70;;;15.80;81.90;;;;;;4449331;28;659490;-72
2023/04/15 09:43:40;;;;;;;4.97;1.80;;;15.90;83.80;;;;;;4447616;28;658136;-72
2023/04/15 09:46:43;;;;;;;4.17;1.70;;;16.10;82.20;;;;;;4467202;28;659604;-73
2023/04/15 09:49:30;;;;;;;4.10;2.03;;;16.40;82.50;;;;;;4408491;28;657959;-72
2023/04/15 09:52:19;;;;;;;3.53;2.00;;;16.30;79.10;;;;;;4447093;28;658565;-73
2023/04/15 09:55:07;;;;;;;4.43;1.93;;;16.60;78.90;;;;;;4412838;28;658060;-72
2023/04/15 09:57:54;;;;;;;5.97;2.27;;;16.60;79.20;;;;;;4431391;28;658158;-73
2023/04/15 10:00:42;;;;;;;3.23;1.80;;;16.60;77.50;;;;;;4408771;28;659017;-72
2023/04/15 10:03:30;;;;;;;6.13;2.57;;;17.40;78.50;;;;;;4429916;28;658030;-73
2023/04/15 10:06:17;;;;;;;3.77;2.00;;;17.60;74.00;;;;;;4408465;28;659427;-73
2023/04/15 10:09:06;;;;;;;4.87;2.20;;;17.50;69.50;;;;;;4431224;28;657918;-73
2023/04/15 10:11:53;;;;;;;5.00;2.20;;;17.20;64.10;;;;;;4425564;28;658396;-73
2023/04/15 10:14:41;;;;;;;8.10;2.50;;;16.60;68.00;;;;;;4412573;28;657809;-71
2023/04/15 10:17:32;;;;;;;4.33;2.10;;;16.20;70.40;;;;;;4448921;28;658489;-73
2023/04/15 10:20:19;;;;;;;4.37;2.00;;;16.20;69.60;;;;;;4425909;28;658282;-73
2023/04/15 10:23:06;;;;;;;4.33;2.10;;;16.60;69.50;;;;;;4409731;28;657329;-72
2023/04/15 10:25:55;;;;;;;4.60;2.23;;;16.80;68.90;;;;;;4432490;28;658158;-73
2023/04/15 10:28:42;;;;;;;4.20;2.10;;;16.60;70.80;;;;;;4430130;28;657633;-73
2023/04/15 10:31:30;;;;;;;3.50;1.80;;;16.90;70.80;;;;;;4448948;28;657347;-73
2023/04/15 10:34:17;;;;;;;4.87;2.10;;;16.80;65.90;;;;;;4408184;28;659113;-73
2023/04/15 10:37:04;;;;;;;3.83;1.60;;;16.70;67.50;;;;;;4452512;28;657980;-73
2023/04/15 10:39:52;;;;;;;5.87;1.53;;;16.60;63.90;;;;;;4412546;28;658506;-73
2023/04/15 10:42:40;;;;;;;5.53;1.90;;;16.00;60.30;;;;;;4452015;28;657517;-73
2023/04/15 10:45:28;;;;;;;5.00;2.60;;;15.80;72.10;;;;;;4409974;28;658810;-73
2023/04/15 10:48:15;;;;;;;6.80;2.37;;;16.60;69.70;;;;;;4422034;28;658000;-73
2023/04/15 10:51:03;;;;;;;4.93;2.57;;;17.00;65.40;;;;;;4434830;28;659043;-71
2023/04/15 10:53:51;;;;;;;4.60;2.33;;;17.20;69.30;;;;;;4450843;28;657602;-72
2023/04/15 10:56:38;;;;;;;5.97;2.43;;;16.80;67.80;;;;;;4457316;28;658207;-73
2023/04/15 10:59:27;;;;;;;3.20;2.10;;;16.60;65.60;;;;;;4437948;28;657587;-73
2023/04/15 11:02:15;;;;;;;4.27;2.00;;;16.20;66.40;;;;;;4469815;28;657564;-73
2023/04/15 11:05:02;;;;;;;2.40;1.93;;;16.30;68.10;;;;;;4430518;28;659370;-73
2023/04/15 11:07:54;;;;;;;4.77;1.80;;;16.30;66.40;;;;;;4453075;28;657287;-74
2023/04/15 11:10:56;;;;;;;2.63;1.73;;;16.60;67.00;;;;;;4432000;28;657887;-72
2023/04/15 11:13:48;;;;;;;2.13;1.40;;;16.80;62.50;;;;;;4429721;28;658463;-73
2023/04/15 11:16:44;;;;;;;2.07;1.53;;;16.60;63.30;;;;;;4415043;28;657755;-71
2023/04/15 11:19:38;;;;;;;3.23;1.87;;;16.30;64.00;;;;;;4406755;28;659205;-73
2023/04/15 11:22:26;;;;;;;3.53;1.90;;;16.10;63.90;;;;;;4418282;28;658389;-72
2023/04/15 11:25:22;;;;;;;3.50;2.10;;;16.10;66.80;;;;;;4457343;28;658202;-73
2023/04/15 11:28:09;;;;;;;2.87;1.63;;;15.80;63.00;;;;;;4429854;28;658471;-73
2023/04/15 11:30:57;;;;;;;2.67;1.67;;;15.60;65.80;;;;;;4434004;28;657906;-73
2023/04/15 11:33:55;;;;;;;2.80;1.60;;;15.50;63.80;;;;;;4456932;28;657958;-73
2023/04/15 11:36:42;;;;;;;2.07;1.60;;;15.60;66.90;;;;;;4406418;28;659549;-73
2023/04/15 11:39:29;;;;;;;2.83;1.73;;;15.90;70.30;;;;;;4452288;28;658789;-73
2023/04/15 11:42:17;;;;;;;1.90;1.60;;;16.20;67.80;;;;;;4433810;28;657743;-73
2023/04/15 11:45:08;;;;;;;4.50;1.90;;;16.40;67.40;;;;;;4452566;28;657385;-73
2023/04/15 11:47:55;;;;;;;3.43;1.83;;;16.80;65.20;;;;;;4413674;28;657597;-72
2023/04/15 11:50:44;;;;;;;2.47;1.70;;;17.20;65.70;;;;;;4453251;28;659381;-74
2023/04/15 11:53:39;;;;;;;12.83;6.77;;;17.10;63.50;;;;;;4433296;28;657916;-72
2023/04/15 11:56:27;;;;;;;13.17;5.57;;;17.30;63.20;;;;;;4442747;28;659019;-73
2023/04/15 11:59:14;;;;;;;15.17;6.77;;;16.70;57.90;;;;;;4451123;28;659168;-74
2023/04/15 12:02:11;;;;;;;15.03;6.47;;;16.30;60.00;;;;;;4428915;28;658362;-73
2023/04/15 12:05:04;;;;;;;2.40;1.87;;;15.80;58.50;;;;;;4443984;28;659237;-73
2023/04/15 12:08:01;;;;;;;1.73;1.53;;;15.60;58.40;;;;;;4433428;28;657508;-73
2023/04/15 12:10:49;;;;;;;1.77;1.60;;;15.80;58.80;;;;;;4427669;28;657979;-73
2023/04/15 12:13:36;;;;;;;2.50;1.53;;;16.10;60.90;;;;;;4431548;28;657924;-73
2023/04/15 12:16:24;;;;;;;4.77;2.23;;;15.80;56.50;;;;;;4452678;28;658334;-73
2023/04/15 12:19:12;;;;;;;4.53;2.40;;;15.80;58.70;;;;;;4431486;28;657827;-72
2023/04/15 12:22:00;;;;;;;3.47;2.00;;;15.60;61.90;;;;;;4452203;28;657546;-73
2023/04/15 12:24:55;;;;;;;2.80;1.80;;;15.40;63.40;;;;;;4432990;28;658014;-72
2023/04/15 12:27:46;;;;;;;3.33;2.03;;;15.30;63.90;;;;;;4407771;28;658141;-72
2023/04/15 12:30:33;;;;;;;4.00;2.53;;;15.60;68.00;;;;;;4429456;28;658584;-72
2023/04/15 12:33:20;;;;;;;2.92;2.20;;;15.60;68.60;;;;;;4432315;28;657686;-72
2023/04/15 12:36:08;;;;;;;2.83;1.77;;;15.60;71.20;;;;;;4452708;28;659235;-73
2023/04/15 12:38:55;;;;;;;3.10;2.10;;;15.80;67.90;;;;;;4452935;28;657887;-72
2023/04/15 12:41:44;;;;;;;3.80;2.37;;;16.00;67.50;;;;;;4451769;28;659449;-73
2023/04/15 12:44:31;;;;;;;3.70;2.60;;;15.90;65.70;;;;;;4433233;28;657440;-72
2023/04/15 12:47:19;;;;;;;2.80;2.10;;;16.40;66.60;;;;;;4452513;28;657939;-72
2023/04/15 12:50:07;;;;;;;3.47;2.20;;;16.60;63.00;;;;;;4428748;28;657664;-72
2023/04/15 12:52:54;;;;;;;4.33;2.90;;;16.50;59.30;;;;;;4442140;28;658192;-73
2023/04/15 12:55:41;;;;;;;2.27;1.80;;;16.50;60.40;;;;;;4414527;28;657520;-73
2023/04/15 12:58:30;;;;;;;1.83;1.50;;;16.60;59.40;;;;;;4449913;28;658267;-73
2023/04/15 13:01:17;;;;;;;1.70;1.60;;;16.70;57.30;;;;;;4413336;28;658781;-73
2023/04/15 13:04:05;;;;;;;2.47;1.90;;;16.60;56.90;;;;;;4428510;28;658312;-71
2023/04/15 13:06:52;;;;;;;4.17;2.70;;;16.60;58.60;;;;;;4436079;28;659678;-73
2023/04/15 13:09:39;;;;;;;2.73;2.30;;;17.00;59.30;;;;;;4449928;28;657292;-73
2023/04/15 13:12:27;;;;;;;2.93;2.20;;;17.50;58.20;;;;;;4413301;28;658624;-72
2023/04/15 13:15:18;;;;;;;6.57;2.63;;;18.10;57.30;;;;;;4448676;28;657666;-73
2023/04/15 13:18:06;;;;;;;4.33;2.30;;;18.50;53.40;;;;;;4393199;28;657926;-72
2023/04/15 13:20:54;;;;;;;2.30;1.90;;;19.10;56.90;;;;;;4449099;28;659173;-73
2023/04/15 13:23:41;;;;;;;3.83;1.90;;;19.70;52.50;;;;;;4429709;28;658042;-73
2023/04/15 13:26:28;;;;;;;2.67;2.03;;;19.80;50.30;;;;;;4449385;28;657752;-73
2023/04/15 13:29:16;;;;;;;1.90;1.70;;;20.10;50.00;;;;;;4413244;28;657961;-73
2023/04/15 13:32:04;;;;;;;4.70;1.73;;;20.00;49.90;;;;;;4432037;28;658253;-73
2023/04/15 13:34:53;;;;;;;2.97;1.63;;;20.50;49.90;;;;;;4412901;28;658548;-73
2023/04/15 13:37:40;;;;;;;2.80;2.00;;;20.60;49.70;;;;;;4412638;28;657516;-73
2023/04/15 13:40:28;;;;;;;2.50;2.13;;;20.80;51.40;;;;;;4431378;28;659440;-73
2023/04/15 13:43:16;;;;;;;3.10;2.33;;;21.00;49.20;;;;;;4421609;28;657809;-72
2023/04/15 13:46:03;;;;;;;5.03;2.47;;;21.10;49.50;;;;;;4431246;28;658579;-73
2023/04/15 13:48:52;;;;;;;3.60;2.13;;;20.90;47.60;;;;;;4412753;28;657406;-72
2023/04/15 13:51:39;;;;;;;3.40;2.20;;;20.70;48.80;;;;;;4448855;28;658498;-73
2023/04/15 13:54:27;;;;;;;4.60;2.60;;;20.40;50.50;;;;;;4410447;28;658106;-73
2023/04/15 13:57:14;;;;;;;5.10;3.47;;;20.20;51.00;;;;;;4449201;28;657916;-73
2023/04/15 14:00:02;;;;;;;6.43;3.17;;;20.00;50.20;;;;;;4413405;28;658016;-74
2023/04/15 14:02:49;;;;;;;5.10;2.60;;;20.20;50.60;;;;;;4448836;28;657600;-72
2023/04/15 14:05:38;;;;;;;5.10;3.10;;;20.50;50.20;;;;;;4429557;28;658575;-72
2023/04/15 14:08:25;;;;;;;4.65;3.03;;;20.90;50.40;;;;;;4430025;28;657481;-72
2023/04/15 14:11:12;;;;;;;4.30;2.67;;;21.20;48.70;;;;;;4448863;28;658780;-73
2023/04/15 14:14:00;;;;;;;4.03;2.60;;;21.00;49.70;;;;;;4445475;28;657949;-73
2023/04/15 14:16:47;;;;;;;3.50;2.43;;;20.80;47.90;;;;;;4432570;28;658843;-73
2023/04/15 14:19:35;;;;;;;7.57;3.70;;;21.00;49.50;;;;;;4448151;28;658361;-73
2023/04/15 14:22:24;;;;;;;4.17;2.80;;;20.70;49.60;;;;;;4453253;28;658139;-72
2023/04/15 14:25:11;;;;;;;5.63;2.72;;;21.10;49.80;;;;;;4426066;28;657753;-73
2023/04/15 14:27:58;;;;;;;5.23;3.00;;;21.60;48.70;;;;;;4451312;28;658548;-72